»·PEaware :: N408EV KSMX-KBFL

N408EV :: KSMX-KBFL

FLIGHT INFORMATION

Flight Status: Arrived
Operator: Privately registered:
United States
More flights under this callsign
Pilot: Jimmy P. (14267)
Aircraft: CESSNA 172 SKYHAWK
(C172)
More flights by this aircraft type
Origin: KSMX Santa Maria Pub/Capt Hancock
United States
Destination: KBFL Meadows
United States
More flights between these airports :: More routes between these airports
Route: +
File this flight plan on PilotEdge
Remarks:
Altitude:
(Current/Filed)
0ft
Speed:
(Current/Filed)
0kts
Departed: 12-Oct-17 02:33 PM
Arrived: 12-Oct-17 03:26 PM
Distance/Time
Traveled:
76nm/0:53
Distance/Time
To Go:
Arrived

Flight Plot

Page will automatically refresh every two minutes.


Map Options




Map Legend


Flown Route
Filed Route
Departure Airport
Arrival Airport
Navaid (VOR, NDB)
Fix

Horizontal Profiles

Position Reports

Time Latitude Longitude Heading Altitude Ground
Speed
12-Oct-17 14:28 34.890705 -120.448856 29 265ft 0kts
12-Oct-17 14:29 34.890705 -120.448856 29 265ft 0kts
12-Oct-17 14:30 34.890705 -120.448856 29 265ft 0kts
12-Oct-17 14:31 34.890705 -120.448856 30 265ft 0kts
12-Oct-17 14:32 34.890705 -120.448856 30 265ft 0kts
12-Oct-17 14:33 34.891008 -120.447975 92 265ft 6kts
12-Oct-17 14:34 34.891674 -120.446404 41 265ft 4kts
12-Oct-17 14:35 34.891818 -120.446216 46 265ft 0kts
12-Oct-17 14:36 34.892511 -120.445539 2 265ft 10kts
12-Oct-17 14:37 34.902818 -120.458105 327 757ft 76kts
12-Oct-17 14:38 34.919096 -120.471694 346 1720ft 74kts
12-Oct-17 14:39 34.929333 -120.458301 72 2639ft 74kts
12-Oct-17 14:40 34.934203 -120.434524 66 3490ft 76kts
12-Oct-17 14:41 34.940960 -120.410407 60 4359ft 71kts
12-Oct-17 14:42 34.946367 -120.388238 67 5231ft 67kts
12-Oct-17 14:43 34.948892 -120.364989 77 5953ft 76kts
12-Oct-17 14:44 34.951560 -120.340292 75 6683ft 78kts
12-Oct-17 14:45 34.954770 -120.314972 67 7355ft 80kts
12-Oct-17 14:46 34.961852 -120.288547 57 7554ft 85kts
12-Oct-17 14:47 34.970943 -120.262131 64 7577ft 90kts
12-Oct-17 14:48 34.978572 -120.235189 59 7511ft 85kts
12-Oct-17 14:49 34.987992 -120.208796 56 7503ft 84kts
12-Oct-17 14:50 34.997702 -120.182819 55 7509ft 84kts
12-Oct-17 14:51 35.007558 -120.158853 54 7502ft 85kts
12-Oct-17 14:52 35.016682 -120.133643 60 7598ft 85kts
12-Oct-17 14:53 35.026679 -120.108044 55 7596ft 96kts
12-Oct-17 14:54 35.036931 -120.082081 60 7397ft 87kts
12-Oct-17 14:55 35.046172 -120.057396 61 7374ft 80kts
12-Oct-17 14:56 35.055372 -120.032442 60 7582ft 86kts
12-Oct-17 14:57 35.066232 -120.004159 61 7661ft 96kts
12-Oct-17 14:59 35.075512 -119.975631 62 7384ft 92kts
12-Oct-17 15:00 35.086139 -119.946234 59 7512ft 106kts
12-Oct-17 15:01 35.100139 -119.910930 59 7445ft 128kts
12-Oct-17 15:02 35.115149 -119.872902 61 7445ft 122kts
12-Oct-17 15:03 35.129620 -119.834942 60 7483ft 123kts
12-Oct-17 15:04 35.144611 -119.796938 61 7522ft 129kts
12-Oct-17 15:05 35.160039 -119.756431 60 7431ft 134kts
12-Oct-17 15:06 35.174783 -119.717179 62 7434ft 125kts
12-Oct-17 15:07 35.189401 -119.678262 61 7485ft 125kts
12-Oct-17 15:08 35.204478 -119.638940 61 7463ft 127kts
12-Oct-17 15:09 35.218768 -119.600361 62 7507ft 126kts
12-Oct-17 15:10 35.232915 -119.560447 62 7447ft 126kts
12-Oct-17 15:11 35.247015 -119.522373 63 7556ft 119kts
12-Oct-17 15:12 35.261145 -119.485421 60 7604ft 123kts
12-Oct-17 15:13 35.275756 -119.447178 63 7585ft 122kts
12-Oct-17 15:14 35.289984 -119.409118 63 7549ft 118kts
12-Oct-17 15:15 35.302989 -119.373865 72 7464ft 92kts
12-Oct-17 15:16 35.310478 -119.343381 72 6935ft 107kts
12-Oct-17 15:17 35.320036 -119.313239 73 6246ft 85kts
12-Oct-17 15:18 35.329886 -119.287588 64 5940ft 77kts
12-Oct-17 15:19 35.341251 -119.260446 65 5378ft 96kts
12-Oct-17 15:20 35.354654 -119.232775 57 4866ft 94kts
12-Oct-17 15:21 35.368045 -119.204329 63 4544ft 97kts
12-Oct-17 15:22 35.379786 -119.179965 54 4018ft 91kts
12-Oct-17 15:23 35.391427 -119.157490 56 3462ft 90kts
12-Oct-17 15:24 35.395278 -119.134033 86 3135ft 85kts
12-Oct-17 15:25 35.391844 -119.111766 112 3048ft 86kts
12-Oct-17 15:26 35.387606 -119.089392 91 2733ft 84kts
12-Oct-17 15:27 35.390438 -119.068016 74 2205ft 73kts
12-Oct-17 15:28 35.400220 -119.051505 49 1640ft 69kts
12-Oct-17 15:29 35.413211 -119.038571 7 1221ft 68kts
12-Oct-17 15:30 35.427854 -119.049127 317 702ft 61kts
12-Oct-17 15:31 35.435727 -119.058086 357 490ft 16kts

Navigation Log

Ident Type
1. KSMX Airport
2. KBFL Airport